Time,TemperatureF,DewpointF,PressureIn,WindDirection,WindDirectionDegrees,WindSpeedMPH,WindSpeedGustMPH,Humidity,HourlyPrecipIn,Conditions,Clouds,dailyrainin,SoftwareType,DateUTC
2013-01-14 00:01:00,45.0,17.6,29.91,ESE,112,2.0,9.0,33,0.00,,,0.00,Weather View 32 v70,2013-01-14 05:01:00,
2013-01-14 00:32:00,46.0,17.0,29.89,South,180,6.0,10.0,31,0.00,,,0.00,Weather View 32 v70,2013-01-14 05:32:00,
2013-01-14 01:01:00,45.0,15.4,29.90,SE,135,4.0,10.0,30,0.00,,,0.00,Weather View 32 v70,2013-01-14 06:01:00,
2013-01-14 01:31:00,46.0,13.8,29.90,WSW,247,6.0,12.0,27,0.00,,,0.00,Weather View 32 v70,2013-01-14 06:31:00,
2013-01-14 02:02:00,46.0,11.2,29.90,WSW,247,4.0,12.0,24,0.00,,,0.00,Weather View 32 v70,2013-01-14 07:02:00,
2013-01-14 02:04:00,46.0,11.2,29.90,WSW,247,4.0,12.0,24,0.00,,,0.00,Weather View 32 v70,2013-01-14 07:04:00,
2013-01-14 02:31:00,46.0,9.2,29.90,WSW,247,4.0,12.0,22,0.00,,,0.00,Weather View 32 v70,2013-01-14 07:31:00,
2013-01-14 03:02:00,46.0,10.2,29.90,WSW,247,4.0,12.0,23,0.00,,,0.00,Weather View 32 v70,2013-01-14 08:02:00,
2013-01-14 03:08:00,46.0,10.2,29.90,WSW,247,4.0,12.0,23,0.00,,,0.00,Weather View 32 v70,2013-01-14 08:08:00,
2013-01-14 03:31:00,46.0,10.2,29.88,SW,225,6.0,9.0,23,0.00,,,0.00,Weather View 32 v70,2013-01-14 08:31:00,
2013-01-14 04:00:00,45.0,10.3,29.86,ESE,112,5.0,9.0,24,0.00,,,0.00,Weather View 32 v70,2013-01-14 09:00:00,
2013-01-14 04:01:00,45.0,10.3,29.86,ESE,112,5.0,9.0,24,0.00,,,0.00,Weather View 32 v70,2013-01-14 09:01:00,
2013-01-14 04:31:00,44.0,11.3,29.85,South,180,4.0,8.0,26,0.00,,,0.00,Weather View 32 v70,2013-01-14 09:31:00,
2013-01-14 05:00:00,43.0,10.4,29.85,North,360,3.0,8.0,26,0.00,,,0.00,Weather View 32 v70,2013-01-14 10:00:00,
2013-01-14 05:01:00,43.0,10.4,29.85,North,360,3.0,8.0,26,0.00,,,0.00,Weather View 32 v70,2013-01-14 10:01:00,
2013-01-14 05:32:00,45.0,13.0,29.83,SSE,157,2.0,7.0,27,0.00,,,0.00,Weather View 32 v70,2013-01-14 10:32:00,
2013-01-14 06:00:00,43.0,3.5,29.82,NE,45,2.0,7.0,19,0.00,,,0.00,Weather View 32 v70,2013-01-14 11:00:00,
2013-01-14 06:01:00,43.0,3.5,29.82,NE,45,2.0,7.0,19,0.00,,,0.00,Weather View 32 v70,2013-01-14 11:01:00,
2013-01-14 06:31:00,43.0,5.7,29.83,North,360,3.0,7.0,21,0.00,,,0.00,Weather View 32 v70,2013-01-14 11:31:00,
2013-01-14 07:00:00,44.0,8.5,29.80,NNW,337,6.0,12.0,23,0.00,,,0.00,Weather View 32 v70,2013-01-14 12:00:00,
2013-01-14 07:01:00,44.0,8.5,29.80,NNW,337,6.0,12.0,23,0.00,,,0.00,Weather View 32 v70,2013-01-14 12:01:00,
2013-01-14 07:30:00,45.0,8.4,29.83,SSW,202,2.0,12.0,22,0.00,,,0.00,Weather View 32 v70,2013-01-14 12:30:00,
2013-01-14 08:01:00,46.0,11.2,29.82,SSE,157,6.0,15.0,24,0.00,,,0.00,Weather View 32 v70,2013-01-14 13:01:00,
2013-01-14 08:32:00,46.0,8.2,29.82,South,180,6.0,15.0,21,0.00,,,0.00,Weather View 32 v70,2013-01-14 13:32:00,
2013-01-14 09:01:00,46.0,2.3,29.82,North,360,0.0,12.0,16,0.00,,,0.00,Weather View 32 v70,2013-01-14 14:01:00,
2013-01-14 09:31:00,47.0,5.6,29.81,SW,225,5.0,12.0,18,0.00,,,0.00,Weather View 32 v70,2013-01-14 14:31:00,
2013-01-14 10:01:00,47.0,-11.4,29.83,SSW,202,5.0,12.0,8,0.00,,,0.00,Weather View 32 v70,2013-01-14 15:01:00,
2013-01-14 10:31:00,48.0,11.9,29.84,WNW,292,6.0,13.0,23,0.00,,,0.00,Weather View 32 v70,2013-01-14 15:31:00,
2013-01-14 10:37:00,48.0,11.9,29.84,WNW,292,6.0,13.0,23,0.00,,,0.00,Weather View 32 v70,2013-01-14 15:37:00,
2013-01-14 11:01:00,48.0,27.6,29.83,WSW,247,7.0,13.0,45,0.00,,,0.00,Weather View 32 v70,2013-01-14 16:01:00,
2013-01-14 11:30:00,48.0,26.5,29.83,WNW,292,8.0,11.0,43,0.00,,,0.00,Weather View 32 v70,2013-01-14 16:30:00,
2013-01-14 11:31:00,48.0,26.5,29.83,WNW,292,8.0,11.0,43,0.00,,,0.00,Weather View 32 v70,2013-01-14 16:31:00,
2013-01-14 12:01:00,51.0,41.2,29.82,SW,225,7.0,11.0,69,0.00,,,0.00,Weather View 32 v70,2013-01-14 17:01:00,
2013-01-14 12:30:00,53.0,48.3,29.82,South,180,9.0,11.0,84,0.00,,,0.00,Weather View 32 v70,2013-01-14 17:30:00,
2013-01-14 12:31:00,53.0,48.3,29.82,South,180,9.0,11.0,84,0.00,,,0.00,Weather View 32 v70,2013-01-14 17:31:00,
2013-01-14 13:01:00,54.0,50.5,29.82,SW,225,4.0,11.0,88,0.00,,,0.00,Weather View 32 v70,2013-01-14 18:01:00,
2013-01-14 13:30:00,55.0,52.4,29.84,WSW,247,5.0,11.0,91,0.00,,,0.00,Weather View 32 v70,2013-01-14 18:30:00,
2013-01-14 13:31:00,55.0,52.4,29.84,WSW,247,5.0,11.0,91,0.00,,,0.00,Weather View 32 v70,2013-01-14 18:31:00,
2013-01-14 14:03:00,56.0,54.3,29.86,West,270,10.0,22.0,94,0.00,,,0.00,Weather View 32 v70,2013-01-14 19:03:00,
2013-01-14 14:30:00,53.0,50.7,29.89,WNW,292,23.0,24.0,92,0.00,,,0.00,Weather View 32 v70,2013-01-14 19:30:00,
2013-01-14 14:31:00,53.0,50.7,29.89,WNW,292,23.0,24.0,92,0.00,,,0.00,Weather View 32 v70,2013-01-14 19:31:00,
2013-01-14 15:00:00,52.0,43.6,29.91,WNW,292,5.0,24.0,73,0.00,,,0.00,Weather View 32 v70,2013-01-14 20:00:00,
2013-01-14 15:31:00,51.0,38.0,29.94,WNW,292,17.0,25.0,61,0.00,,,0.00,Weather View 32 v70,2013-01-14 20:31:00,
2013-01-14 16:02:00,48.0,28.7,29.98,WNW,292,9.0,25.0,47,0.00,,,0.00,Weather View 32 v70,2013-01-14 21:02:00,
2013-01-14 16:32:00,45.0,27.5,30.01,NNW,337,3.0,24.0,50,0.00,,,0.00,Weather View 32 v70,2013-01-14 21:32:00,
2013-01-14 17:04:00,43.0,29.6,30.06,NW,315,7.0,24.0,59,0.00,,,0.00,Weather View 32 v70,2013-01-14 22:04:00,
2013-01-14 17:35:00,41.0,29.7,30.08,NNW,337,7.0,17.0,64,0.00,,,0.00,Weather View 32 v70,2013-01-14 22:35:00,
2013-01-14 18:01:00,40.0,29.2,30.09,WNW,292,7.0,18.0,65,0.00,,,0.00,Weather View 32 v70,2013-01-14 23:01:00,
2013-01-14 18:07:00,40.0,29.2,30.09,WNW,292,7.0,18.0,65,0.00,,,0.00,Weather View 32 v70,2013-01-14 23:07:00,
2013-01-14 18:31:00,39.0,28.6,30.09,NW,315,5.0,18.0,66,0.00,,,0.00,Weather View 32 v70,2013-01-14 23:31:00,
2013-01-14 19:00:00,38.0,28.4,30.11,WSW,247,1.0,15.0,68,0.00,,,0.00,Weather View 32 v70,2013-01-15 00:00:00,
2013-01-14 19:01:00,38.0,28.4,30.11,WSW,247,1.0,15.0,68,0.00,,,0.00,Weather View 32 v70,2013-01-15 00:01:00,
2013-01-14 19:32:00,36.0,30.1,30.13,WNW,292,7.0,12.0,79,0.00,,,0.00,Weather View 32 v70,2013-01-15 00:32:00,
2013-01-14 20:00:00,35.0,30.9,30.16,West,270,7.0,10.0,85,0.00,,,0.00,Weather View 32 v70,2013-01-15 01:00:00,
2013-01-14 20:01:00,35.0,30.9,30.16,West,270,7.0,10.0,85,0.00,,,0.00,Weather View 32 v70,2013-01-15 01:01:00,
2013-01-14 20:31:00,34.0,31.6,30.17,NW,315,7.0,10.0,91,0.00,,,0.00,Weather View 32 v70,2013-01-15 01:31:00,
2013-01-14 21:00:00,35.0,29.1,30.18,NNW,337,3.0,11.0,79,0.00,,,0.00,Weather View 32 v70,2013-01-15 02:00:00,
2013-01-14 21:02:00,35.0,29.1,30.18,NNW,337,3.0,11.0,79,0.00,,,0.00,Weather View 32 v70,2013-01-15 02:02:00,
2013-01-14 21:31:00,35.0,27.5,30.17,NNW,337,7.0,13.0,74,0.00,,,0.00,Weather View 32 v70,2013-01-15 02:31:00,
2013-01-14 22:00:00,36.0,27.8,30.18,NNW,337,7.0,17.0,72,0.00,,,0.00,Weather View 32 v70,2013-01-15 03:00:00,
2013-01-14 22:02:00,36.0,27.8,30.18,NNW,337,7.0,17.0,72,0.00,,,0.00,Weather View 32 v70,2013-01-15 03:02:00,
2013-01-14 22:30:00,35.0,26.9,30.16,NNW,337,12.0,17.0,72,0.00,,,0.00,Weather View 32 v70,2013-01-15 03:30:00,
2013-01-14 23:01:00,35.0,26.2,30.16,NW,315,7.0,16.0,70,0.00,,,0.00,Weather View 32 v70,2013-01-15 04:01:00,
2013-01-14 23:32:00,35.0,26.2,30.18,WNW,292,7.0,16.0,70,0.00,,,0.00,Weather View 32 v70,2013-01-15 04:32:00,